createdAt,value
2018-02-13T00:01:48.418Z,4.75
2018-02-13T00:04:15.902Z,4.55
2018-02-13T00:06:43.744Z,5.35
2018-02-13T00:09:11.221Z,3.58
2018-02-13T00:11:38.705Z,4.90
2018-02-13T00:14:06.772Z,3.45
2018-02-13T00:16:34.278Z,6.50
2018-02-13T00:19:01.771Z,13.80
2018-02-13T00:21:29.253Z,6.80
2018-02-13T00:23:56.909Z,4.65
2018-02-13T00:26:24.976Z,4.50
2018-02-13T00:28:52.509Z,3.70
2018-02-13T00:31:19.992Z,3.30
2018-02-13T00:33:47.522Z,4.60
2018-02-13T00:36:15.008Z,3.33
2018-02-13T00:38:42.501Z,5.72
2018-02-13T00:41:10.007Z,5.80
2018-02-13T00:43:37.490Z,3.60
2018-02-13T00:46:04.985Z,8.95
2018-02-13T00:48:32.481Z,12.50
2018-02-13T00:50:59.969Z,4.82
2018-02-13T00:53:27.445Z,5.15
2018-02-13T00:55:54.929Z,6.07
2018-02-13T00:58:22.424Z,4.50
2018-02-13T01:00:49.971Z,13.82
2018-02-13T01:03:17.629Z,3.62
2018-02-13T01:05:45.110Z,3.80
2018-02-13T01:08:12.606Z,4.12
2018-02-13T01:10:40.089Z,6.30
2018-02-13T01:13:07.671Z,6.62
2018-02-13T01:15:35.166Z,4.70
2018-02-13T01:18:03.301Z,5.32
2018-02-13T01:20:30.794Z,8.00
2018-02-13T01:22:58.273Z,4.80
2018-02-13T01:25:25.810Z,7.80
2018-02-13T01:27:53.291Z,3.78
2018-02-13T01:30:20.584Z,4.22
2018-02-13T01:32:48.064Z,5.70
2018-02-13T01:35:15.565Z,5.03
2018-02-13T01:37:43.045Z,4.90
2018-02-13T01:40:10.536Z,5.18
2018-02-13T01:42:38.013Z,5.05
2018-02-13T01:45:05.306Z,3.90
2018-02-13T01:47:33.527Z,3.70
2018-02-13T01:50:00.798Z,4.22
2018-02-13T01:52:28.289Z,8.48
2018-02-13T01:54:56.732Z,5.18
2018-02-13T01:57:24.892Z,5.28
2018-02-13T01:59:52.385Z,4.93
2018-02-13T02:02:20.673Z,9.05
2018-02-13T02:04:48.168Z,8.10
2018-02-13T02:07:16.649Z,6.30
2018-02-13T02:09:44.161Z,5.70
2018-02-13T02:12:11.882Z,9.55
2018-02-13T02:14:39.390Z,4.35
2018-02-13T02:17:06.868Z,5.68
2018-02-13T02:19:34.349Z,11.15
2018-02-13T02:22:01.873Z,5.47
2018-02-13T02:24:29.356Z,5.12
2018-02-13T02:26:56.867Z,4.47
2018-02-13T02:29:24.368Z,5.03
2018-02-13T02:37:23.797Z,9.90
2018-02-13T02:39:51.287Z,6.07
2018-02-13T02:42:18.815Z,6.22
2018-02-13T02:44:46.294Z,4.80
2018-02-13T02:47:14.791Z,5.22
2018-02-13T02:49:42.291Z,7.85
2018-02-13T02:52:09.794Z,8.32
2018-02-13T02:54:37.278Z,8.38
2018-02-13T02:57:04.803Z,6.90
2018-02-13T02:59:32.296Z,11.75
2018-02-13T03:04:44.817Z,5.82
2018-02-13T03:07:12.314Z,8.55
2018-02-13T03:09:39.793Z,7.93
2018-02-13T03:12:07.410Z,5.72
2018-02-13T03:14:34.902Z,7.22
2018-02-13T03:17:02.765Z,7.97
2018-02-13T03:19:30.246Z,7.57
2018-02-13T03:21:57.741Z,8.30
2018-02-13T03:24:24.986Z,6.25
2018-02-13T03:26:53.503Z,10.20
2018-02-13T03:29:20.987Z,7.45
2018-02-13T03:31:48.502Z,11.30
2018-02-13T03:34:16.036Z,9.45
2018-02-13T03:36:43.541Z,7.22
2018-02-13T03:39:11.034Z,10.68
2018-02-13T03:41:38.546Z,13.40
2018-02-13T03:44:06.036Z,10.35
2018-02-13T03:46:33.545Z,11.80
2018-02-13T03:49:01.052Z,12.55
2018-02-13T03:51:28.554Z,9.85
2018-02-13T03:53:56.106Z,11.40
2018-02-13T03:56:23.617Z,10.15
2018-02-13T03:58:51.114Z,14.85
2018-02-13T04:01:18.613Z,9.60
2018-02-13T04:03:46.239Z,9.35
2018-02-13T04:06:13.737Z,7.95
2018-02-13T04:08:41.218Z,7.93
2018-02-13T04:11:08.745Z,6.87
2018-02-13T04:13:36.243Z,9.48
2018-02-13T04:16:03.728Z,8.00
2018-02-13T04:18:31.221Z,10.10
2018-02-13T04:20:58.719Z,10.38
2018-02-13T04:23:28.181Z,9.73
2018-02-13T04:25:55.729Z,10.55
2018-02-13T04:28:23.229Z,9.57
2018-02-13T04:30:50.545Z,9.20
2018-02-13T04:33:18.058Z,11.88
2018-02-13T04:35:45.576Z,8.20
2018-02-13T04:38:13.089Z,8.63
2018-02-13T04:40:40.615Z,10.30
2018-02-13T04:43:08.121Z,9.95
2018-02-13T04:45:35.601Z,9.45
2018-02-13T04:48:03.130Z,14.65
2018-02-13T04:50:30.485Z,6.28
2018-02-13T04:52:58.014Z,10.52
2018-02-13T04:55:25.509Z,8.60
2018-02-13T04:57:54.058Z,10.05
2018-02-13T05:00:21.558Z,8.75
2018-02-13T05:02:49.066Z,7.72
2018-02-13T05:05:16.547Z,9.15
2018-02-13T05:07:44.049Z,11.30
2018-02-13T05:10:11.531Z,9.90
2018-02-13T05:12:39.045Z,13.82
2018-02-13T05:15:06.965Z,7.03
2018-02-13T05:17:35.430Z,10.65
2018-02-13T05:20:02.909Z,6.45
2018-02-13T05:22:30.404Z,14.30
2018-02-13T05:24:57.885Z,7.70
2018-02-13T05:27:25.369Z,10.07
2018-02-13T05:29:52.846Z,20.95
2018-02-13T05:32:20.348Z,10.60
2018-02-13T05:34:47.838Z,11.18
2018-02-13T05:37:15.326Z,16.20
2018-02-13T05:39:42.843Z,12.60
2018-02-13T05:42:10.330Z,12.93
2018-02-13T05:44:37.813Z,15.93
2018-02-13T05:47:05.320Z,12.73
2018-02-13T05:49:32.818Z,12.43
2018-02-13T05:52:00.293Z,9.55
2018-02-13T05:54:27.777Z,9.15
2018-02-13T05:56:55.300Z,13.02
2018-02-13T05:59:22.788Z,10.38
2018-02-13T06:01:50.703Z,21.95
2018-02-13T06:04:18.374Z,11.98
2018-02-13T06:06:46.845Z,11.00
2018-02-13T06:09:14.334Z,15.85
2018-02-13T06:11:42.184Z,14.55
2018-02-13T06:14:09.666Z,14.02
2018-02-13T06:16:37.149Z,16.20
2018-02-13T06:19:04.645Z,15.43
2018-02-13T06:21:32.135Z,10.30
2018-02-13T06:23:59.624Z,13.05
2018-02-13T06:26:27.164Z,15.60
2018-02-13T06:28:54.811Z,21.70
2018-02-13T06:31:23.261Z,15.02
2018-02-13T06:33:50.745Z,12.25
2018-02-13T06:36:18.290Z,13.65
2018-02-13T06:38:45.768Z,15.20
2018-02-13T06:41:13.254Z,15.73
2018-02-13T06:43:40.737Z,14.25
2018-02-13T06:46:08.224Z,19.30
2018-02-13T06:48:36.461Z,18.00
2018-02-13T06:51:03.942Z,18.87
2018-02-13T06:53:31.454Z,10.45
2018-02-13T06:55:58.934Z,11.70
2018-02-13T06:58:26.421Z,11.20
2018-02-13T07:00:53.909Z,8.75
2018-02-13T07:03:21.417Z,12.57
2018-02-13T07:05:48.897Z,9.60
2018-02-13T07:08:16.896Z,11.68
2018-02-13T07:10:44.409Z,11.55
2018-02-13T07:13:11.913Z,14.52
2018-02-13T07:15:39.454Z,13.20
2018-02-13T07:18:06.982Z,31.40
2018-02-13T07:20:34.481Z,26.80
2018-02-13T07:23:01.985Z,15.05
2018-02-13T07:25:29.512Z,9.63
2018-02-13T07:27:57.019Z,8.27
2018-02-13T07:30:24.538Z,11.07
2018-02-13T07:32:52.058Z,123.75
2018-02-13T07:35:19.553Z,80.50
2018-02-13T07:37:47.103Z,41.95
2018-02-13T07:40:14.585Z,31.45
2018-02-13T07:42:42.134Z,27.92
2018-02-13T07:45:09.790Z,22.60
2018-02-13T07:47:37.286Z,22.08
2018-02-13T07:50:04.522Z,17.85
2018-02-13T07:52:32.006Z,15.13
2018-02-13T07:54:59.506Z,20.33
2018-02-13T07:57:26.986Z,13.23
2018-02-13T07:59:54.488Z,21.23
2018-02-13T08:02:21.979Z,15.00
2018-02-13T08:04:49.479Z,10.25
2018-02-13T08:07:17.003Z,13.57
2018-02-13T08:09:44.512Z,11.52
2018-02-13T08:12:12.006Z,15.63
2018-02-13T08:14:39.504Z,14.07
2018-02-13T08:17:06.990Z,16.83
2018-02-13T08:19:34.499Z,12.35
2018-02-13T08:22:01.985Z,10.80
2018-02-13T08:24:29.490Z,9.02
2018-02-13T08:26:56.978Z,11.82
2018-02-13T08:29:24.522Z,7.90
2018-02-13T08:31:52.954Z,11.55
2018-02-13T08:34:24.561Z,11.73
2018-02-13T08:36:52.065Z,13.10
2018-02-13T08:39:19.606Z,12.25
2018-02-13T08:41:48.097Z,12.15
2018-02-13T08:44:15.610Z,11.12
2018-02-13T08:46:43.095Z,8.95
2018-02-13T08:49:10.601Z,10.73
2018-02-13T08:51:38.081Z,7.53
2018-02-13T08:54:05.577Z,8.73
2018-02-13T08:56:33.065Z,10.07
2018-02-13T08:59:00.587Z,10.73
2018-02-13T09:01:28.106Z,8.55
2018-02-13T09:03:55.770Z,10.00
2018-02-13T09:06:23.624Z,8.35
2018-02-13T09:08:51.117Z,8.20
2018-02-13T09:11:18.594Z,8.10
2018-02-13T09:13:46.093Z,8.48
2018-02-13T09:16:13.812Z,7.15
2018-02-13T09:18:42.314Z,15.40
2018-02-13T09:21:09.805Z,7.07
2018-02-13T09:23:37.288Z,5.03
2018-02-13T09:26:04.785Z,8.65
2018-02-13T09:28:32.286Z,4.95
2018-02-13T09:30:59.778Z,4.93
2018-02-13T09:33:27.257Z,5.85
2018-02-13T09:35:54.757Z,4.57
2018-02-13T09:38:22.243Z,7.18
2018-02-13T09:40:49.740Z,4.70
2018-02-13T09:43:17.226Z,8.02
2018-02-13T09:45:44.719Z,4.05
2018-02-13T09:48:12.202Z,4.97
2018-02-13T09:50:40.629Z,5.85
2018-02-13T09:53:08.115Z,5.75
2018-02-13T09:55:35.643Z,4.75
2018-02-13T09:58:03.136Z,5.90
2018-02-13T10:00:30.665Z,4.25
2018-02-13T10:02:58.151Z,3.40
2018-02-13T10:05:25.650Z,5.22
2018-02-13T10:07:53.164Z,5.30
2018-02-13T10:10:20.667Z,4.62
2018-02-13T10:12:48.145Z,6.35
2018-02-13T10:15:15.641Z,3.47
2018-02-13T10:17:42.960Z,3.90
2018-02-13T10:20:10.348Z,2.65
2018-02-13T10:22:37.641Z,3.17
2018-02-13T10:25:05.153Z,2.08
2018-02-13T10:27:32.642Z,3.90
2018-02-13T10:30:00.137Z,2.75
2018-02-13T10:32:27.615Z,1.48
2018-02-13T10:34:55.113Z,1.98
2018-02-13T10:37:22.585Z,1.40
2018-02-13T10:39:50.081Z,1.50
2018-02-13T10:42:17.573Z,1.52
2018-02-13T10:44:47.006Z,2.37
2018-02-13T10:47:14.485Z,1.60
2018-02-13T10:49:42.974Z,6.25
2018-02-13T10:52:10.450Z,1.80
2018-02-13T10:54:37.958Z,3.17
2018-02-13T10:57:05.454Z,1.65
2018-02-13T10:59:32.929Z,2.85
2018-02-13T11:02:06.004Z,3.35
2018-02-13T11:04:33.501Z,4.55
2018-02-13T11:07:00.978Z,1.65
2018-02-13T11:09:28.461Z,4.70
2018-02-13T11:11:55.944Z,1.85
2018-02-13T11:14:23.225Z,2.15
2018-02-13T11:16:50.509Z,2.25
2018-02-13T11:19:18.006Z,1.77
2018-02-13T11:21:45.481Z,2.50
2018-02-13T11:24:12.954Z,1.73
2018-02-13T11:26:40.433Z,2.20
2018-02-13T11:29:07.911Z,3.15
2018-02-13T11:31:35.381Z,1.80
2018-02-13T11:34:02.665Z,1.42
2018-02-13T11:36:30.149Z,2.60
2018-02-13T11:38:57.630Z,2.85
2018-02-13T11:41:25.108Z,2.03
2018-02-13T11:43:52.422Z,2.15
2018-02-13T11:46:19.906Z,1.50
2018-02-13T11:48:47.405Z,2.37
2018-02-13T11:51:14.877Z,1.20
2018-02-13T11:53:42.372Z,1.27
2018-02-13T11:56:09.849Z,3.10
2018-02-13T11:58:37.322Z,2.33
2018-02-13T12:01:04.805Z,1.75
2018-02-13T12:03:32.278Z,1.77
2018-02-13T12:05:59.763Z,1.20
2018-02-13T12:08:27.250Z,2.92
2018-02-13T12:10:54.721Z,1.10
2018-02-13T12:13:22.198Z,1.67
2018-02-13T12:15:49.674Z,1.65
2018-02-13T12:18:17.182Z,8.13
2018-02-13T12:20:44.676Z,2.70
2018-02-13T12:23:13.291Z,1.62
2018-02-13T12:25:42.262Z,3.20
2018-02-13T12:28:09.494Z,2.00
2018-02-13T12:30:36.840Z,1.60
2018-02-13T12:33:04.462Z,1.40
2018-02-13T12:35:31.934Z,1.60
2018-02-13T12:37:59.429Z,5.10
2018-02-13T12:40:26.914Z,4.07
2018-02-13T12:42:54.427Z,1.37
2018-02-13T12:45:22.065Z,1.40
2018-02-13T12:47:49.538Z,2.28
2018-02-13T12:50:17.013Z,1.73
2018-02-13T12:52:44.485Z,2.08
2018-02-13T12:55:11.964Z,1.50
2018-02-13T12:57:39.445Z,1.98
2018-02-13T13:00:06.934Z,7.87
2018-02-13T13:02:34.144Z,2.27
2018-02-13T13:05:01.334Z,5.80
2018-02-13T13:07:28.543Z,2.73
2018-02-13T13:09:55.741Z,4.27
2018-02-13T13:12:22.940Z,2.70
2018-02-13T13:14:50.136Z,2.83
2018-02-13T13:17:17.330Z,3.87
2018-02-13T13:19:44.557Z,3.60
2018-02-13T13:22:11.753Z,6.13
2018-02-13T13:24:38.984Z,3.53
2018-02-13T13:27:06.181Z,4.90
2018-02-13T13:29:33.393Z,2.80
2018-02-13T13:32:00.586Z,2.97
2018-02-13T13:34:27.805Z,4.27
2018-02-13T13:36:55.007Z,4.40
2018-02-13T13:39:22.268Z,3.67
2018-02-13T13:41:49.466Z,3.33
2018-02-13T13:44:18.653Z,3.73
2018-02-13T13:46:45.849Z,4.37
2018-02-13T13:49:15.037Z,3.90
2018-02-13T13:51:42.234Z,2.90
2018-02-13T13:54:09.461Z,2.70
2018-02-13T13:56:36.657Z,2.40
2018-02-13T13:59:03.882Z,5.80
2018-02-13T14:01:30.893Z,2.67
2018-02-13T14:03:58.105Z,3.13
2018-02-13T14:06:25.293Z,3.60
2018-02-13T14:08:52.503Z,6.73
2018-02-13T14:11:20.550Z,7.23
2018-02-13T14:13:47.576Z,5.93
2018-02-13T14:16:14.789Z,2.70
2018-02-13T14:18:41.813Z,3.43
2018-02-13T14:21:09.973Z,2.30
2018-02-13T14:23:37.168Z,3.10
2018-02-13T14:26:05.313Z,3.23
2018-02-13T14:28:32.533Z,5.93
2018-02-13T14:30:59.906Z,3.00
2018-02-13T14:33:27.100Z,3.83
2018-02-13T14:35:55.069Z,4.97
2018-02-13T14:38:23.018Z,5.63
2018-02-13T14:40:52.201Z,6.47
2018-02-13T14:43:19.406Z,4.83
2018-02-13T14:45:46.646Z,5.33
2018-02-13T14:48:13.841Z,3.33
2018-02-13T14:50:41.050Z,4.60
2018-02-13T14:53:08.741Z,4.13
2018-02-13T14:55:35.953Z,9.50
2018-02-13T14:58:04.109Z,3.83
2018-02-13T15:00:31.137Z,5.20
2018-02-13T15:02:58.361Z,6.50
2018-02-13T15:05:25.582Z,7.23
2018-02-13T15:07:52.802Z,7.90
2018-02-13T15:10:20.014Z,4.60
2018-02-13T15:12:47.024Z,4.20
2018-02-13T15:15:14.910Z,7.03
2018-02-13T15:17:45.682Z,4.03
2018-02-13T15:20:12.903Z,6.97
2018-02-13T15:22:40.094Z,4.37
2018-02-13T15:25:07.332Z,7.07
2018-02-13T15:27:34.526Z,4.83
2018-02-13T15:30:01.754Z,4.87
2018-02-13T15:32:28.969Z,4.27
2018-02-13T15:34:56.191Z,3.37
2018-02-13T15:37:23.394Z,3.70
2018-02-13T15:39:50.598Z,4.60
2018-02-13T15:42:19.734Z,6.77
2018-02-13T15:44:46.925Z,3.90
2018-02-13T15:47:14.254Z,4.68
2018-02-13T15:49:42.194Z,5.25
2018-02-13T15:52:09.694Z,3.65
2018-02-13T15:54:37.166Z,2.95
2018-02-13T15:57:04.666Z,4.32
2018-02-13T15:59:32.143Z,4.80
2018-02-13T16:01:59.649Z,3.42
2018-02-13T16:04:27.130Z,5.50
2018-02-13T16:06:54.626Z,5.00
2018-02-13T16:09:22.118Z,6.90
2018-02-13T16:11:49.617Z,3.55
2018-02-13T16:14:18.062Z,5.00
2018-02-13T16:16:46.588Z,5.20
2018-02-13T16:19:14.062Z,4.12
2018-02-13T16:21:41.561Z,6.43
2018-02-13T16:24:09.058Z,5.47
2018-02-13T16:26:36.529Z,5.37
2018-02-13T16:29:04.020Z,5.85
2018-02-13T16:31:31.572Z,4.82
2018-02-13T16:33:59.046Z,4.25
2018-02-13T16:36:26.545Z,4.53
2018-02-13T16:38:54.022Z,4.85
2018-02-13T16:41:21.519Z,4.00
2018-02-13T16:43:48.997Z,6.90
2018-02-13T16:46:16.479Z,3.85
2018-02-13T16:48:43.977Z,3.92
2018-02-13T16:51:11.458Z,4.32
2018-02-13T16:53:38.982Z,13.73
2018-02-13T16:56:06.465Z,16.55
2018-02-13T16:58:33.973Z,9.63
2018-02-13T17:01:01.475Z,7.20
2018-02-13T17:03:28.978Z,8.85
2018-02-13T17:05:56.501Z,7.40
2018-02-13T17:08:25.012Z,7.78
2018-02-13T17:10:52.497Z,8.55
2018-02-13T17:13:19.992Z,9.77
2018-02-13T17:15:48.441Z,6.18
2018-02-13T17:18:15.937Z,9.52
2018-02-13T17:20:43.419Z,6.12
2018-02-13T17:23:11.913Z,8.93
2018-02-13T17:25:39.398Z,10.13
2018-02-13T17:28:06.886Z,6.85
2018-02-13T17:30:34.390Z,6.87
2018-02-13T17:33:01.878Z,6.15
2018-02-13T17:35:29.367Z,15.40
2018-02-13T17:37:56.844Z,5.93
2018-02-13T17:40:24.343Z,6.47
2018-02-13T17:42:51.824Z,7.90
2018-02-13T17:45:19.426Z,4.95
2018-02-13T17:47:46.906Z,6.40
2018-02-13T17:50:14.386Z,6.62
2018-02-13T17:52:41.898Z,5.37
2018-02-13T17:55:09.381Z,6.80
2018-02-13T17:57:36.876Z,6.50
2018-02-13T18:00:04.371Z,7.93
2018-02-13T18:02:31.853Z,6.70
2018-02-13T18:04:59.366Z,14.60
2018-02-13T18:07:26.849Z,18.98
2018-02-13T18:09:54.334Z,9.15
2018-02-13T18:12:21.828Z,11.38
2018-02-13T18:14:49.309Z,7.80
2018-02-13T18:17:16.789Z,6.82
2018-02-13T18:19:44.273Z,7.85
2018-02-13T18:22:11.765Z,6.12
2018-02-13T18:24:39.283Z,9.43
2018-02-13T18:27:06.766Z,6.10
2018-02-13T18:29:34.303Z,9.15
2018-02-13T18:32:01.786Z,11.80
2018-02-13T18:34:29.269Z,8.07
2018-02-13T18:36:56.750Z,7.37
2018-02-13T18:39:24.236Z,7.25
2018-02-13T18:41:51.737Z,9.45
2018-02-13T18:44:19.241Z,11.75
2018-02-13T18:46:46.725Z,9.82
2018-02-13T18:49:14.248Z,14.05
2018-02-13T18:51:41.733Z,7.28
2018-02-13T18:54:09.230Z,7.78
2018-02-13T18:56:36.717Z,11.48
2018-02-13T18:59:05.158Z,10.88
2018-02-13T19:01:32.655Z,8.07
2018-02-13T19:04:00.143Z,9.80
2018-02-13T19:06:27.638Z,10.10
2018-02-13T19:08:55.167Z,8.50
2018-02-13T19:11:22.797Z,9.15
2018-02-13T19:13:50.286Z,13.25
2018-02-13T19:16:17.846Z,11.43
2018-02-13T19:18:45.331Z,9.55
2018-02-13T19:21:12.822Z,11.35
2018-02-13T19:23:40.310Z,10.02
2018-02-13T19:26:07.808Z,13.15
2018-02-13T19:28:35.301Z,10.65
2018-02-13T19:31:02.809Z,11.60
2018-02-13T19:33:30.319Z,13.48
2018-02-13T19:35:57.812Z,14.70
2018-02-13T19:38:26.230Z,10.80
2018-02-13T19:40:53.569Z,10.98
2018-02-13T19:43:21.066Z,11.35
2018-02-13T19:45:48.589Z,12.37
2018-02-13T19:48:16.757Z,11.77
2018-02-13T19:50:44.293Z,13.95
2018-02-13T19:53:11.848Z,12.77
2018-02-13T19:55:39.341Z,13.73
2018-02-13T19:58:06.841Z,11.75
2018-02-13T20:00:34.341Z,14.13
2018-02-13T20:03:01.853Z,11.90
2018-02-13T20:05:29.426Z,10.93
2018-02-13T20:07:56.918Z,13.35
2018-02-13T20:10:24.439Z,15.40
2018-02-13T20:12:51.949Z,14.13
2018-02-13T20:15:19.479Z,16.05
2018-02-13T20:17:46.973Z,16.05
2018-02-13T20:20:14.487Z,14.55
2018-02-13T20:22:41.969Z,13.95
2018-02-13T20:25:09.471Z,18.60
2018-02-13T20:27:36.863Z,14.07
2018-02-13T20:30:04.354Z,16.50
2018-02-13T20:32:31.844Z,12.68
2018-02-13T20:34:59.332Z,14.52
2018-02-13T20:37:26.822Z,11.90
2018-02-13T20:39:54.319Z,15.20
2018-02-13T20:42:21.805Z,16.62
2018-02-13T20:44:50.130Z,19.37
2018-02-13T20:47:17.640Z,18.83
2018-02-13T20:49:45.126Z,12.93
2018-02-13T20:52:12.634Z,16.08
2018-02-13T20:54:40.118Z,11.73
2018-02-13T20:57:07.621Z,14.43
2018-02-13T20:59:35.105Z,15.00
2018-02-13T21:02:02.630Z,15.15
2018-02-13T21:04:30.138Z,17.30
2018-02-13T21:06:57.648Z,15.57
2018-02-13T21:09:25.910Z,15.18
2018-02-13T21:11:54.425Z,15.50
2018-02-13T21:14:24.160Z,16.50
2018-02-13T21:16:51.701Z,15.32
2018-02-13T21:19:19.190Z,15.75
2018-02-13T21:21:46.692Z,15.60
2018-02-13T21:24:14.180Z,12.88
2018-02-13T21:26:41.714Z,16.55
2018-02-13T21:29:09.212Z,17.25
2018-02-13T21:31:36.727Z,17.12
2018-02-13T21:34:04.218Z,15.10
2018-02-13T21:36:31.726Z,15.55
2018-02-13T21:38:59.217Z,18.23
2018-02-13T21:41:26.725Z,13.70
2018-02-13T21:43:54.222Z,16.12
2018-02-13T21:46:21.718Z,13.32
2018-02-13T21:48:49.312Z,15.48
2018-02-13T21:51:16.823Z,19.73
2018-02-13T21:53:44.362Z,14.20
2018-02-13T21:56:11.864Z,12.65
2018-02-13T21:58:39.346Z,18.55
2018-02-13T22:01:06.828Z,13.48
2018-02-13T22:03:34.323Z,18.52
2018-02-13T22:06:01.818Z,19.60
2018-02-13T22:08:29.313Z,13.95
2018-02-13T22:10:56.799Z,16.60
2018-02-13T22:13:24.502Z,18.20
2018-02-13T22:15:51.750Z,16.12
2018-02-13T22:18:19.290Z,14.68
2018-02-13T22:20:46.769Z,19.02
2018-02-13T22:23:14.261Z,11.85
2018-02-13T22:25:41.750Z,13.18
2018-02-13T22:28:09.260Z,15.70
2018-02-13T22:30:36.741Z,14.05
2018-02-13T22:33:04.245Z,15.10
2018-02-13T22:35:31.730Z,13.45
2018-02-13T22:38:01.216Z,18.73
2018-02-13T22:40:28.714Z,13.07
2018-02-13T22:42:57.223Z,12.95
2018-02-13T22:45:24.701Z,13.45
2018-02-13T22:47:53.233Z,14.23
2018-02-13T22:50:20.716Z,15.15
2018-02-13T22:52:48.227Z,15.60
2018-02-13T22:55:15.712Z,15.70
2018-02-13T22:57:43.261Z,20.17
2018-02-13T23:00:10.508Z,16.67
2018-02-13T23:02:38.017Z,12.35
2018-02-13T23:05:05.501Z,14.48
2018-02-13T23:07:33.024Z,16.23
2018-02-13T23:10:00.509Z,15.90
2018-02-13T23:12:28.017Z,14.38
2018-02-13T23:14:55.534Z,14.52
2018-02-13T23:17:24.061Z,16.40
2018-02-13T23:19:52.563Z,18.98
2018-02-13T23:22:20.082Z,16.95
2018-02-13T23:24:47.615Z,16.23
2018-02-13T23:27:15.097Z,14.50
2018-02-13T23:29:42.597Z,16.77
2018-02-13T23:32:10.194Z,14.60
2018-02-13T23:34:37.682Z,14.35
2018-02-13T23:37:05.165Z,13.93
2018-02-13T23:39:32.663Z,15.63
2018-02-13T23:42:00.194Z,15.88
2018-02-13T23:44:27.687Z,16.55
2018-02-13T23:46:55.185Z,15.02
2018-02-13T23:49:22.687Z,20.62
2018-02-13T23:51:50.172Z,18.52
2018-02-13T23:54:17.682Z,16.65
2018-02-13T23:56:45.177Z,14.52
2018-02-13T23:59:12.690Z,15.50
